Overview Statistics Trail Chart Weather Telemetry Raw packets
 

This is the latest recevied weather packets stored in our database for station/object TONGUE. If no packets are shown the sender has not sent any weather packets the latest 10 day(s).

<< 22 23 24 25 26 27 28 >>
Time Temp. Humidity Pressure Rain* Wind** Luminosity Snow
1788139803 19.44° C 67% 0 hPa - - - -
1788139203 19.44° C 68% 0 hPa - - - -
1788138009 18.89° C 65% 0 hPa - - - -
1788137402 18.89° C 71% 0 hPa - - - -
1788136803 18.89° C 69% 0 hPa - - - -
1788136203 18.89° C 72% 0 hPa - - - -
1788135603 18.33° C 73% 0 hPa - - - -
1788135005 18.33° C 75% 0 hPa - - - -
1788134404 18.33° C 74% 0 hPa - - - -
1788133803 17.78° C 76% 0 hPa - - - -
1788133203 18.33° C 73% 0 hPa - - - -
1788132604 18.33° C 71% 0 hPa - - - -
1788132003 18.33° C 70% 0 hPa - - - -
1788131403 18.33° C 72% 0 hPa - - - -
1788130803 18.89° C 69% 0 hPa - - - -
1788130203 18.33° C 74% 0 hPa - - - -
1788129603 18.89° C 71% 0 hPa - - - -
1788129015 18.89° C 72% 0 hPa - - - -
1788128402 18.89° C 70% 0 hPa - - - -
1788127803 18.89° C 68% 0 hPa - - - -
1788127203 17.78° C 74% 0 hPa - - - -
1788126604 17.78° C 72% 0 hPa - - - -
1788126004 18.33° C 72% 0 hPa - - - -
1788125403 18.33° C 71% 0 hPa - - - -
1788124807 18.33° C 73% 0 hPa - - - -

* Rain since midnight (hover to see other rain measurements)
** Current wind speed in m/s (hover to see current wind gust speed)